KIKG

Details ICAO KIKG
Name KLEBERG CO
Region United States
Timezone America/Chicago (UTC-6.0)
Plans Departing 5
Arriving 3
Stats Elevation 131 ft / 40 m (AMSL)
Location 27.550856° -98.030925°
Runways 1
Magnetic Variation 4.015° E
Sunrise 2017-12-14 13:15:55 UTC / 2017-12-14 07:15:55 Local
Sunset 2017-12-14 23:40:45 UTC / 2017-12-14 17:40:45 Local
Advertisement - Login to hide

Runways

ID Width Length Bearing (true) Bearing (mag) Surface Threshold Offset Overrun Length
13 75 ft / 23 m 6,008 ft / 1,831 m 140.17° 136.15° Asphalt 0 ft / 0 m 0 ft / 0 m
31 75 ft / 23 m 6,008 ft / 1,831 m 320.18° 316.16° Asphalt 0 ft / 0 m 0 ft / 0 m

Map

Weather


0- 5 10 15 20 25 30 35+ Temperature / ° C

Clouds and Precipitation
Forecast for 2017-12-14 18:00 UTC. Updated 2 hours ago

Ground ~20,000 ft ~40,000 ft Winds

METAR

KIKG 141515Z AUTO 00000KT 10SM CLR 14/11 A2999 RMK AO2 T01360106

TAF

Not found

Frequencies

Recorded 119.07 MHz AWOS 3
Approach 119.90 MHz KINGSVILLE APP
Unicom 122.70 MHz CTAF/UNICOM
Departure 119.90 MHz KINGSVILLE DEP
Warning: Do not use this data for real-world aviation or navigation. No guarantee of current accuracy is given.